NEW HOGAN LAKE (NHG)

Elevation: 554' · CALAVERAS R basin · Operator: US Army Corps of Engineers

Provisional data, subject to change.
Query executed Saturday at 19:46:08   clock

Select a sensor type for a plot of data.
Note: Reservoir Flows are daily averages.

Earlier

Date RES ELE    STORAGE    RES CHG    TOC STO    ABV TOC    OUTFLOW    INFLOW    FNF    PPT INC    TEMP MN    TEMP MX   
 FEET   AF   AF   AF   AF   CFS   CFS   CFS   INCHES   DEG F   DEG F  
01/01/2015 618.32 49668 44 152818 -103150 9 34 34 0.00 -0 10
01/02/2015 618.35 49713 45 153578 -103865 9 35 35 0.00 -1 10
01/03/2015 618.36 49728 15 154376 -104648 9 20 20 0.00 -0 13
01/04/2015 618.38 49757 29 155211 -105454 9 27 27 0.00 1 13
01/05/2015 618.41 49802 45 156074 -106272 9 35 35 0.00 2 14
01/06/2015 618.43 49831 29 156940 -107109 9 28 28 0.00 4 18
01/07/2015 618.45 49861 30 157853 -107992 9 29 29 0.00 5 20
01/08/2015 618.48 49906 45 158682 -108776 10 36 36 0.00 6 20
01/09/2015 618.48 49906 0 159505 -109599 10 12 12 0.00 8 15
01/10/2015 618.51 49950 44 160328 -110378 10 35 35 0.00 8 18
01/11/2015 618.51 49950 0 161151 -111201 10 13 13 0.00 7 17
01/12/2015 618.54 49995 45 161973 -111978 10 36 -- 0.00 6 16
01/13/2015 618.53 49980 -15 162796 -112816 10 5 -- 0.00 5 14
01/14/2015 618.54 49995 15 163619 -113624 10 21 21 0.00 4 15
01/15/2015 618.55 50010 15 164442 -114432 10 21 21 0.00 4 16
01/16/2015 618.58 50054 44 165265 -115211 10 35 35 0.00 4 14
01/17/2015 618.55 50010 -44 166087 -116077 10 -9 -9 0.00 7 14
01/18/2015 618.57 50039 29 166910 -116871 10 27 27 0.00 5 13
01/19/2015 618.59 50069 30 167733 -117664 10 26 -- 0.00 7 10
01/20/2015 618.59 50069 0 168556 -118487 10 11 -- 0.00 7 10
01/21/2015 618.61 50099 30 169378 -119279 10 27 27 0.00 6 12
01/22/2015 618.59 50069 -30 170201 -120132 10 -3 -3 0.00 5 12
01/23/2015 618.59 50069 0 171024 -120955 10 13 13 0.00 2 12
01/24/2015 618.60 50084 15 171847 -121763 10 20 20 0.00 3 11
01/25/2015 618.62 50114 30 172670 -122556 10 28 28 0.00 1 14
01/26/2015 618.61 50099 -15 173492 -123393 10 6 6 0.00 5 16
01/27/2015 618.61 50099 0 174315 -124216 10 14 14 0.01 8 19
01/28/2015 618.63 50129 30 175138 -125009 10 29 29 0.00 5 16
01/29/2015 618.63 50129 0 175961 -125832 10 14 -- 0.02 5 18
01/30/2015 618.63 50129 0 176784 -126655 -- -- -- -- -- --
01/31/2015 -- -- -- -- -- -- -- -- -- -- --

Later | Latest

Warning! This data is preliminary and subject to revision.

Show NHG Map | Plot NHG Data | 1 Month NHG Data | Real-Time NHG Data | NHG Info